METAR ET TAF INFORMATION
METAR FOR LFRB
ADDS - METARS form results

(2241 UTC 17 September 2019)
Data provider http://aviationweather.gov/metar/data/
 
METAR text: LFRB 172230Z AUTO 03007KT CAVOK 12/10 Q1024 NOSIG
Conditions at: LFRB (BREST/GUIPAVAS , FR) observed 2230 UTC 17 September 2019
Temperature: 12.0°C (54°F)
Dewpoint: 10.0°C (50°F) [RH = 88%]
Pressure (altimeter): 30.24 inches Hg (1024.0 mb)
Winds: from the NNE (30 degrees) at 8 MPH (7 knots; 3.6 m/s)
Visibility: 6 or more miles (10+ km)
Ceiling: ceiling and visibility are OK
Clouds: unknown
Weather: no significant weather observed at this time

METAR text: LFRB 172200Z AUTO 04007KT CAVOK 12/11 Q1024 NOSIG
Conditions at: LFRB (BREST/GUIPAVAS , FR) observed 2200 UTC 17 September 2019
Temperature: 12.0°C (54°F)
Dewpoint: 11.0°C (52°F) [RH = 94%]
Pressure (altimeter): 30.24 inches Hg (1024.0 mb)
Winds: from the NE (40 degrees) at 8 MPH (7 knots; 3.6 m/s)
Visibility: 6 or more miles (10+ km)
Ceiling: ceiling and visibility are OK
Clouds: unknown
Weather: no significant weather observed at this time

Forecast for: LFRB (BREST/GUIPAVAS , FR)
Text: TAF LFRB 171700Z 1718/1824 04014KT 9999 FEW020
Forecast period: 1800 UTC 17 September 2019 to 0000 UTC 19 September 2019
Forecast type: FROM: standard forecast or significant change
Winds: from the NE (40 degrees) at 16 MPH (14 knots; 7.2 m/s)
Visibility: 6 or more miles 10+ km)
Ceiling: at least 12,000 feet AGL
Clouds: few clouds at 2000 feet AGL
Weather: no significant weather forecast for this period

 AÉROPORT DE AÉROPORT

 INFORMATIONS DE PISTE
Piste 07L Longueur de la piste 2297 ft Largeur de la piste 59 ft
Élévation de la piste 311 ft Seuil de la piste déplacés 0 ft Runway heading 71
Piste 25R Longueur de la piste 2297 ft Largeur de la piste 59 ft
Élévation de la piste 317 ft Seuil de la piste déplacés 0 ft Runway heading 251
Piste 07R Longueur de la piste 10171 ft Largeur de la piste 148 ft
Élévation de la piste 289 ft Seuil de la piste déplacés 0 ft Runway heading 71
Piste 25L Longueur de la piste 10171 ft Largeur de la piste 148 ft
Élévation de la piste 312 ft Seuil de la piste déplacés 984 ft Runway heading 251

 AÉROPORT FRÉQUENCES
Type APP Nom LANDI APP Féquence 122.4 MHZ
Type APP Nom IROISE APP Féquence 135.825 MHZ
Type ATIS Nom ATIS Féquence 129.35 MHZ
Type TWR Nom TWR Féquence 120.1 MHZ

 SIDA DE NAVIGATION
Type NDB Nom Guipavas Féquence 387 KHZ
Type NDB Nom Guipavas Féquence 338 KHZ



Powered by Virtual Airlines Manager [v2.6.2]